sensor_id;sensor_type;location;lat;lon;timestamp;P1;durP1;ratioP1;P2;durP2;ratioP2
35444;SDS011;21562;49.476;6.086;2023-02-23T00:01:17;19.08;;;11.05;;
35444;SDS011;21562;49.476;6.086;2023-02-23T00:03:46;16.75;;;11.98;;
35444;SDS011;21562;49.476;6.086;2023-02-23T00:06:16;16.23;;;11.57;;
35444;SDS011;21562;49.476;6.086;2023-02-23T00:08:43;19.10;;;10.88;;
35444;SDS011;21562;49.476;6.086;2023-02-23T00:11:12;19.10;;;11.52;;
35444;SDS011;21562;49.476;6.086;2023-02-23T00:13:39;16.83;;;11.60;;
35444;SDS011;21562;49.476;6.086;2023-02-23T00:16:10;16.83;;;11.82;;
35444;SDS011;21562;49.476;6.086;2023-02-23T00:18:43;14.90;;;10.50;;
35444;SDS011;21562;49.476;6.086;2023-02-23T00:21:16;17.35;;;11.70;;
35444;SDS011;21562;49.476;6.086;2023-02-23T00:23:57;15.98;;;11.13;;
35444;SDS011;21562;49.476;6.086;2023-02-23T00:26:26;15.13;;;10.45;;
35444;SDS011;21562;49.476;6.086;2023-02-23T00:28:59;13.48;;;9.68;;
35444;SDS011;21562;49.476;6.086;2023-02-23T00:31:25;14.98;;;10.18;;
35444;SDS011;21562;49.476;6.086;2023-02-23T00:33:53;13.57;;;9.13;;
35444;SDS011;21562;49.476;6.086;2023-02-23T00:36:21;16.13;;;10.02;;
35444;SDS011;21562;49.476;6.086;2023-02-23T00:38:51;14.10;;;9.15;;
35444;SDS011;21562;49.476;6.086;2023-02-23T00:41:18;23.05;;;9.60;;
35444;SDS011;21562;49.476;6.086;2023-02-23T00:43:46;15.00;;;9.18;;
35444;SDS011;21562;49.476;6.086;2023-02-23T00:46:13;14.13;;;9.48;;
35444;SDS011;21562;49.476;6.086;2023-02-23T00:48:46;16.13;;;9.57;;
35444;SDS011;21562;49.476;6.086;2023-02-23T00:51:13;14.10;;;9.32;;
35444;SDS011;21562;49.476;6.086;2023-02-23T00:53:40;17.98;;;10.27;;
35444;SDS011;21562;49.476;6.086;2023-02-23T00:56:07;19.65;;;10.10;;
35444;SDS011;21562;49.476;6.086;2023-02-23T00:58:33;18.23;;;10.98;;
35444;SDS011;21562;49.476;6.086;2023-02-23T01:00:59;20.90;;;11.43;;
35444;SDS011;21562;49.476;6.086;2023-02-23T01:03:25;19.27;;;10.88;;
35444;SDS011;21562;49.476;6.086;2023-02-23T01:05:52;20.73;;;11.77;;
35444;SDS011;21562;49.476;6.086;2023-02-23T01:08:19;17.83;;;11.52;;
35444;SDS011;21562;49.476;6.086;2023-02-23T01:10:49;21.52;;;12.07;;
35444;SDS011;21562;49.476;6.086;2023-02-23T01:13:21;27.25;;;13.45;;
35444;SDS011;21562;49.476;6.086;2023-02-23T01:15:47;23.92;;;13.02;;
35444;SDS011;21562;49.476;6.086;2023-02-23T01:18:14;26.52;;;14.70;;
35444;SDS011;21562;49.476;6.086;2023-02-23T01:20:41;28.13;;;14.68;;
35444;SDS011;21562;49.476;6.086;2023-02-23T01:23:07;30.45;;;16.02;;
35444;SDS011;21562;49.476;6.086;2023-02-23T01:25:34;31.05;;;15.23;;
35444;SDS011;21562;49.476;6.086;2023-02-23T01:28:00;31.10;;;16.33;;
35444;SDS011;21562;49.476;6.086;2023-02-23T01:30:25;28.25;;;15.90;;
35444;SDS011;21562;49.476;6.086;2023-02-23T01:32:51;34.00;;;15.93;;
35444;SDS011;21562;49.476;6.086;2023-02-23T01:35:17;27.60;;;14.50;;
35444;SDS011;21562;49.476;6.086;2023-02-23T01:37:42;29.17;;;14.73;;
35444;SDS011;21562;49.476;6.086;2023-02-23T01:40:12;30.00;;;14.88;;
35444;SDS011;21562;49.476;6.086;2023-02-23T01:42:45;34.65;;;15.35;;
35444;SDS011;21562;49.476;6.086;2023-02-23T01:47:59;29.33;;;14.65;;
35444;SDS011;21562;49.476;6.086;2023-02-23T01:50:34;27.58;;;15.15;;
35444;SDS011;21562;49.476;6.086;2023-02-23T01:53:06;29.00;;;14.00;;
35444;SDS011;21562;49.476;6.086;2023-02-23T01:55:32;26.38;;;14.32;;
35444;SDS011;21562;49.476;6.086;2023-02-23T01:58:08;23.15;;;12.82;;
35444;SDS011;21562;49.476;6.086;2023-02-23T02:00:40;26.63;;;13.38;;
35444;SDS011;21562;49.476;6.086;2023-02-23T02:03:10;28.73;;;13.57;;
35444;SDS011;21562;49.476;6.086;2023-02-23T02:05:41;26.25;;;12.70;;
35444;SDS011;21562;49.476;6.086;2023-02-23T02:08:07;22.60;;;11.73;;
35444;SDS011;21562;49.476;6.086;2023-02-23T02:10:35;26.42;;;12.70;;
35444;SDS011;21562;49.476;6.086;2023-02-23T02:13:04;27.17;;;12.75;;
35444;SDS011;21562;49.476;6.086;2023-02-23T02:15:37;25.42;;;12.70;;
35444;SDS011;21562;49.476;6.086;2023-02-23T02:18:20;26.80;;;12.82;;
35444;SDS011;21562;49.476;6.086;2023-02-23T02:38:04;28.88;;;13.48;;
35444;SDS011;21562;49.476;6.086;2023-02-23T02:40:45;24.67;;;12.93;;
35444;SDS011;21562;49.476;6.086;2023-02-23T02:45:50;26.80;;;12.93;;
35444;SDS011;21562;49.476;6.086;2023-02-23T02:48:27;27.10;;;13.18;;
35444;SDS011;21562;49.476;6.086;2023-02-23T02:56:17;24.73;;;12.90;;
35444;SDS011;21562;49.476;6.086;2023-02-23T02:58:46;29.05;;;13.57;;
35444;SDS011;21562;49.476;6.086;2023-02-23T03:01:14;25.25;;;13.05;;
35444;SDS011;21562;49.476;6.086;2023-02-23T03:04:01;26.13;;;12.05;;
35444;SDS011;21562;49.476;6.086;2023-02-23T03:07:04;24.65;;;12.25;;
35444;SDS011;21562;49.476;6.086;2023-02-23T03:09:54;24.30;;;11.10;;
35444;SDS011;21562;49.476;6.086;2023-02-23T03:22:18;27.10;;;13.65;;
35444;SDS011;21562;49.476;6.086;2023-02-23T03:25:10;28.77;;;13.57;;
35444;SDS011;21562;49.476;6.086;2023-02-23T03:34:28;26.10;;;14.15;;
35444;SDS011;21562;49.476;6.086;2023-02-23T03:37:22;24.05;;;11.88;;
35444;SDS011;21562;49.476;6.086;2023-02-23T03:40:22;23.67;;;12.68;;
35444;SDS011;21562;49.476;6.086;2023-02-23T03:43:12;30.85;;;13.40;;
35444;SDS011;21562;49.476;6.086;2023-02-23T03:46:00;28.00;;;12.98;;
35444;SDS011;21562;49.476;6.086;2023-02-23T03:48:47;27.30;;;13.15;;
35444;SDS011;21562;49.476;6.086;2023-02-23T03:51:34;24.42;;;11.85;;
35444;SDS011;21562;49.476;6.086;2023-02-23T03:54:26;26.60;;;13.25;;
35444;SDS011;21562;49.476;6.086;2023-02-23T03:57:19;28.58;;;13.25;;
35444;SDS011;21562;49.476;6.086;2023-02-23T04:00:08;26.27;;;13.48;;
35444;SDS011;21562;49.476;6.086;2023-02-23T04:02:55;25.67;;;12.50;;
35444;SDS011;21562;49.476;6.086;2023-02-23T04:05:41;29.23;;;13.02;;
35444;SDS011;21562;49.476;6.086;2023-02-23T04:08:29;23.48;;;12.20;;
35444;SDS011;21562;49.476;6.086;2023-02-23T04:11:28;29.85;;;13.90;;
35444;SDS011;21562;49.476;6.086;2023-02-23T04:14:25;31.33;;;14.48;;
35444;SDS011;21562;49.476;6.086;2023-02-23T04:17:00;25.63;;;14.32;;
35444;SDS011;21562;49.476;6.086;2023-02-23T04:19:28;26.23;;;13.02;;
35444;SDS011;21562;49.476;6.086;2023-02-23T04:21:53;26.65;;;13.05;;
35444;SDS011;21562;49.476;6.086;2023-02-23T04:24:19;25.63;;;12.48;;
35444;SDS011;21562;49.476;6.086;2023-02-23T04:26:45;28.33;;;14.38;;
35444;SDS011;21562;49.476;6.086;2023-02-23T04:29:10;26.50;;;13.85;;
35444;SDS011;21562;49.476;6.086;2023-02-23T04:31:36;26.60;;;13.50;;
35444;SDS011;21562;49.476;6.086;2023-02-23T04:34:03;24.70;;;14.25;;
35444;SDS011;21562;49.476;6.086;2023-02-23T04:36:29;25.25;;;13.32;;
35444;SDS011;21562;49.476;6.086;2023-02-23T04:38:54;26.67;;;12.77;;
35444;SDS011;21562;49.476;6.086;2023-02-23T04:41:20;28.48;;;14.52;;
35444;SDS011;21562;49.476;6.086;2023-02-23T04:43:46;26.42;;;14.40;;
35444;SDS011;21562;49.476;6.086;2023-02-23T04:46:12;29.20;;;13.02;;
35444;SDS011;21562;49.476;6.086;2023-02-23T04:48:38;25.35;;;13.55;;
35444;SDS011;21562;49.476;6.086;2023-02-23T04:51:03;28.05;;;12.70;;
35444;SDS011;21562;49.476;6.086;2023-02-23T04:53:29;25.27;;;13.32;;
35444;SDS011;21562;49.476;6.086;2023-02-23T04:55:55;28.38;;;14.52;;
35444;SDS011;21562;49.476;6.086;2023-02-23T04:58:20;29.20;;;15.27;;
35444;SDS011;21562;49.476;6.086;2023-02-23T05:00:46;29.05;;;14.77;;
35444;SDS011;21562;49.476;6.086;2023-02-23T05:03:12;27.00;;;15.40;;
35444;SDS011;21562;49.476;6.086;2023-02-23T05:05:38;28.77;;;13.45;;
35444;SDS011;21562;49.476;6.086;2023-02-23T05:08:03;31.98;;;14.70;;
35444;SDS011;21562;49.476;6.086;2023-02-23T05:10:29;30.30;;;14.23;;
35444;SDS011;21562;49.476;6.086;2023-02-23T05:12:56;26.50;;;14.57;;
35444;SDS011;21562;49.476;6.086;2023-02-23T05:15:21;29.67;;;14.48;;
35444;SDS011;21562;49.476;6.086;2023-02-23T05:17:47;29.30;;;15.32;;
35444;SDS011;21562;49.476;6.086;2023-02-23T05:20:13;30.05;;;15.32;;
35444;SDS011;21562;49.476;6.086;2023-02-23T05:22:39;26.02;;;13.55;;
35444;SDS011;21562;49.476;6.086;2023-02-23T05:25:05;27.92;;;14.82;;
35444;SDS011;21562;49.476;6.086;2023-02-23T05:27:32;28.33;;;14.18;;
35444;SDS011;21562;49.476;6.086;2023-02-23T05:29:58;26.70;;;14.27;;
35444;SDS011;21562;49.476;6.086;2023-02-23T05:32:24;29.25;;;15.63;;
35444;SDS011;21562;49.476;6.086;2023-02-23T05:34:50;31.27;;;15.45;;
35444;SDS011;21562;49.476;6.086;2023-02-23T05:37:15;30.38;;;15.60;;
35444;SDS011;21562;49.476;6.086;2023-02-23T05:39:41;27.40;;;13.82;;
35444;SDS011;21562;49.476;6.086;2023-02-23T05:42:06;28.85;;;14.63;;
35444;SDS011;21562;49.476;6.086;2023-02-23T05:44:32;28.67;;;14.63;;
35444;SDS011;21562;49.476;6.086;2023-02-23T05:46:58;29.20;;;15.27;;
35444;SDS011;21562;49.476;6.086;2023-02-23T05:49:23;25.13;;;14.40;;
35444;SDS011;21562;49.476;6.086;2023-02-23T05:51:49;28.95;;;15.13;;
35444;SDS011;21562;49.476;6.086;2023-02-23T05:54:15;28.85;;;15.15;;
35444;SDS011;21562;49.476;6.086;2023-02-23T05:56:41;26.00;;;14.45;;
35444;SDS011;21562;49.476;6.086;2023-02-23T05:59:07;34.10;;;16.50;;
35444;SDS011;21562;49.476;6.086;2023-02-23T06:01:33;30.83;;;17.10;;
35444;SDS011;21562;49.476;6.086;2023-02-23T06:03:58;29.38;;;15.77;;
35444;SDS011;21562;49.476;6.086;2023-02-23T06:06:24;29.20;;;16.33;;
35444;SDS011;21562;49.476;6.086;2023-02-23T06:08:51;28.58;;;15.30;;
35444;SDS011;21562;49.476;6.086;2023-02-23T06:11:17;28.52;;;16.15;;
35444;SDS011;21562;49.476;6.086;2023-02-23T06:13:43;32.20;;;16.08;;
35444;SDS011;21562;49.476;6.086;2023-02-23T06:16:08;33.53;;;16.75;;
35444;SDS011;21562;49.476;6.086;2023-02-23T06:18:34;32.58;;;15.73;;
35444;SDS011;21562;49.476;6.086;2023-02-23T06:21:00;39.80;;;18.02;;
35444;SDS011;21562;49.476;6.086;2023-02-23T06:23:28;33.45;;;15.32;;
35444;SDS011;21562;49.476;6.086;2023-02-23T06:25:54;31.77;;;16.38;;
35444;SDS011;21562;49.476;6.086;2023-02-23T06:28:20;28.95;;;15.55;;
35444;SDS011;21562;49.476;6.086;2023-02-23T06:30:45;29.58;;;15.05;;
35444;SDS011;21562;49.476;6.086;2023-02-23T06:33:12;30.25;;;15.40;;
35444;SDS011;21562;49.476;6.086;2023-02-23T06:35:38;34.58;;;16.65;;
35444;SDS011;21562;49.476;6.086;2023-02-23T06:38:04;29.52;;;15.52;;
35444;SDS011;21562;49.476;6.086;2023-02-23T06:40:30;34.28;;;17.00;;
35444;SDS011;21562;49.476;6.086;2023-02-23T06:42:56;28.90;;;15.65;;
35444;SDS011;21562;49.476;6.086;2023-02-23T06:45:22;36.45;;;16.45;;
35444;SDS011;21562;49.476;6.086;2023-02-23T06:47:47;33.22;;;16.80;;
35444;SDS011;21562;49.476;6.086;2023-02-23T06:50:14;30.88;;;15.93;;
35444;SDS011;21562;49.476;6.086;2023-02-23T06:52:40;34.10;;;16.40;;
35444;SDS011;21562;49.476;6.086;2023-02-23T06:55:06;32.22;;;15.93;;
35444;SDS011;21562;49.476;6.086;2023-02-23T06:57:32;29.90;;;15.60;;
35444;SDS011;21562;49.476;6.086;2023-02-23T06:59:58;36.40;;;19.17;;
35444;SDS011;21562;49.476;6.086;2023-02-23T07:02:25;32.58;;;16.38;;
35444;SDS011;21562;49.476;6.086;2023-02-23T07:04:51;36.10;;;17.08;;
35444;SDS011;21562;49.476;6.086;2023-02-23T07:07:17;32.38;;;16.83;;
35444;SDS011;21562;49.476;6.086;2023-02-23T07:09:42;37.33;;;17.45;;
35444;SDS011;21562;49.476;6.086;2023-02-23T07:12:08;35.58;;;16.40;;
35444;SDS011;21562;49.476;6.086;2023-02-23T07:14:34;36.63;;;17.10;;
35444;SDS011;21562;49.476;6.086;2023-02-23T07:17:01;33.53;;;17.10;;
35444;SDS011;21562;49.476;6.086;2023-02-23T07:19:28;40.17;;;17.27;;
35444;SDS011;21562;49.476;6.086;2023-02-23T07:21:54;36.03;;;18.10;;
35444;SDS011;21562;49.476;6.086;2023-02-23T07:24:20;34.20;;;17.15;;
35444;SDS011;21562;49.476;6.086;2023-02-23T07:26:46;36.45;;;17.40;;
35444;SDS011;21562;49.476;6.086;2023-02-23T07:29:13;35.72;;;18.98;;
35444;SDS011;21562;49.476;6.086;2023-02-23T07:31:39;34.90;;;18.52;;
35444;SDS011;21562;49.476;6.086;2023-02-23T07:34:06;37.95;;;18.73;;
35444;SDS011;21562;49.476;6.086;2023-02-23T07:36:32;35.20;;;17.58;;
35444;SDS011;21562;49.476;6.086;2023-02-23T07:38:58;38.20;;;18.67;;
35444;SDS011;21562;49.476;6.086;2023-02-23T07:41:23;39.83;;;19.35;;
35444;SDS011;21562;49.476;6.086;2023-02-23T07:43:49;39.85;;;18.45;;
35444;SDS011;21562;49.476;6.086;2023-02-23T07:46:15;36.42;;;18.83;;
35444;SDS011;21562;49.476;6.086;2023-02-23T07:48:41;37.60;;;19.13;;
35444;SDS011;21562;49.476;6.086;2023-02-23T07:51:10;37.72;;;19.60;;
35444;SDS011;21562;49.476;6.086;2023-02-23T07:53:37;36.90;;;19.50;;
35444;SDS011;21562;49.476;6.086;2023-02-23T07:56:06;37.25;;;18.67;;
35444;SDS011;21562;49.476;6.086;2023-02-23T07:58:34;38.95;;;19.33;;
35444;SDS011;21562;49.476;6.086;2023-02-23T08:01:04;33.03;;;17.73;;
35444;SDS011;21562;49.476;6.086;2023-02-23T08:03:30;41.33;;;20.75;;
35444;SDS011;21562;49.476;6.086;2023-02-23T08:05:56;38.65;;;20.08;;
35444;SDS011;21562;49.476;6.086;2023-02-23T08:08:22;42.53;;;20.10;;
35444;SDS011;21562;49.476;6.086;2023-02-23T08:10:48;39.17;;;20.58;;
35444;SDS011;21562;49.476;6.086;2023-02-23T08:13:14;38.92;;;19.92;;
35444;SDS011;21562;49.476;6.086;2023-02-23T08:15:40;43.05;;;20.40;;
35444;SDS011;21562;49.476;6.086;2023-02-23T08:18:06;38.80;;;18.92;;
35444;SDS011;21562;49.476;6.086;2023-02-23T08:20:32;41.13;;;22.58;;
35444;SDS011;21562;49.476;6.086;2023-02-23T08:22:57;38.78;;;19.50;;
35444;SDS011;21562;49.476;6.086;2023-02-23T08:25:23;37.97;;;19.77;;
35444;SDS011;21562;49.476;6.086;2023-02-23T08:27:51;36.05;;;19.17;;
35444;SDS011;21562;49.476;6.086;2023-02-23T08:30:18;35.47;;;19.02;;
35444;SDS011;21562;49.476;6.086;2023-02-23T08:32:47;36.45;;;19.10;;
35444;SDS011;21562;49.476;6.086;2023-02-23T08:35:14;37.53;;;19.58;;
35444;SDS011;21562;49.476;6.086;2023-02-23T08:37:40;38.67;;;19.80;;
35444;SDS011;21562;49.476;6.086;2023-02-23T08:40:06;38.15;;;21.27;;
35444;SDS011;21562;49.476;6.086;2023-02-23T08:42:32;41.10;;;21.95;;
35444;SDS011;21562;49.476;6.086;2023-02-23T08:44:58;46.08;;;23.10;;
35444;SDS011;21562;49.476;6.086;2023-02-23T08:47:25;40.47;;;22.08;;
35444;SDS011;21562;49.476;6.086;2023-02-23T08:49:51;41.08;;;22.00;;
35444;SDS011;21562;49.476;6.086;2023-02-23T08:52:20;40.55;;;21.02;;
35444;SDS011;21562;49.476;6.086;2023-02-23T08:54:47;36.80;;;20.50;;
35444;SDS011;21562;49.476;6.086;2023-02-23T08:57:12;38.28;;;21.35;;
35444;SDS011;21562;49.476;6.086;2023-02-23T08:59:38;37.67;;;21.23;;
35444;SDS011;21562;49.476;6.086;2023-02-23T09:02:05;43.95;;;22.15;;
35444;SDS011;21562;49.476;6.086;2023-02-23T09:04:32;37.85;;;20.27;;
35444;SDS011;21562;49.476;6.086;2023-02-23T09:07:01;36.03;;;20.27;;
35444;SDS011;21562;49.476;6.086;2023-02-23T09:09:29;39.53;;;21.65;;
35444;SDS011;21562;49.476;6.086;2023-02-23T09:11:56;39.50;;;19.70;;
35444;SDS011;21562;49.476;6.086;2023-02-23T09:14:22;38.47;;;20.63;;
35444;SDS011;21562;49.476;6.086;2023-02-23T09:16:47;41.20;;;21.25;;
35444;SDS011;21562;49.476;6.086;2023-02-23T09:19:13;38.63;;;19.92;;
35444;SDS011;21562;49.476;6.086;2023-02-23T09:21:39;36.40;;;20.00;;
35444;SDS011;21562;49.476;6.086;2023-02-23T09:24:05;39.15;;;19.90;;
35444;SDS011;21562;49.476;6.086;2023-02-23T09:26:31;37.80;;;20.05;;
35444;SDS011;21562;49.476;6.086;2023-02-23T09:28:57;39.25;;;21.08;;
35444;SDS011;21562;49.476;6.086;2023-02-23T09:31:24;42.65;;;20.98;;
35444;SDS011;21562;49.476;6.086;2023-02-23T09:33:50;45.92;;;21.50;;
35444;SDS011;21562;49.476;6.086;2023-02-23T09:36:17;44.00;;;22.40;;
35444;SDS011;21562;49.476;6.086;2023-02-23T09:38:46;41.83;;;22.98;;
35444;SDS011;21562;49.476;6.086;2023-02-23T09:49:24;45.92;;;22.45;;
35444;SDS011;21562;49.476;6.086;2023-02-23T09:51:55;47.67;;;23.73;;
35444;SDS011;21562;49.476;6.086;2023-02-23T09:54:27;52.63;;;24.15;;
35444;SDS011;21562;49.476;6.086;2023-02-23T09:56:57;58.38;;;22.65;;
35444;SDS011;21562;49.476;6.086;2023-02-23T09:59:27;54.45;;;24.90;;
35444;SDS011;21562;49.476;6.086;2023-02-23T10:04:42;62.22;;;24.55;;
35444;SDS011;21562;49.476;6.086;2023-02-23T10:07:14;57.72;;;24.95;;
35444;SDS011;21562;49.476;6.086;2023-02-23T10:15:32;44.45;;;21.77;;
35444;SDS011;21562;49.476;6.086;2023-02-23T10:20:40;41.83;;;21.50;;
35444;SDS011;21562;49.476;6.086;2023-02-23T10:23:16;42.13;;;20.98;;
35444;SDS011;21562;49.476;6.086;2023-02-23T10:25:48;40.40;;;20.35;;
35444;SDS011;21562;49.476;6.086;2023-02-23T10:28:17;43.88;;;21.90;;
35444;SDS011;21562;49.476;6.086;2023-02-23T10:30:45;43.78;;;22.20;;
35444;SDS011;21562;49.476;6.086;2023-02-23T10:33:23;43.40;;;21.77;;
35444;SDS011;21562;49.476;6.086;2023-02-23T10:35:57;44.00;;;20.88;;
35444;SDS011;21562;49.476;6.086;2023-02-23T10:38:35;50.13;;;21.95;;
35444;SDS011;21562;49.476;6.086;2023-02-23T10:41:01;46.22;;;22.00;;
35444;SDS011;21562;49.476;6.086;2023-02-23T10:43:28;74.85;;;24.45;;
35444;SDS011;21562;49.476;6.086;2023-02-23T10:45:54;49.42;;;21.95;;
35444;SDS011;21562;49.476;6.086;2023-02-23T10:48:24;49.47;;;22.90;;
35444;SDS011;21562;49.476;6.086;2023-02-23T10:50:54;50.28;;;22.60;;
35444;SDS011;21562;49.476;6.086;2023-02-23T10:53:30;46.45;;;22.80;;
35444;SDS011;21562;49.476;6.086;2023-02-23T10:58:47;49.05;;;22.38;;
35444;SDS011;21562;49.476;6.086;2023-02-23T11:04:28;38.92;;;21.73;;
35444;SDS011;21562;49.476;6.086;2023-02-23T11:07:15;46.17;;;23.02;;
35444;SDS011;21562;49.476;6.086;2023-02-23T11:09:45;44.42;;;22.30;;
35444;SDS011;21562;49.476;6.086;2023-02-23T11:12:24;46.22;;;23.67;;
35444;SDS011;21562;49.476;6.086;2023-02-23T11:15:29;44.50;;;22.27;;
35444;SDS011;21562;49.476;6.086;2023-02-23T11:17:58;42.65;;;20.98;;
35444;SDS011;21562;49.476;6.086;2023-02-23T11:20:35;42.60;;;23.20;;
35444;SDS011;21562;49.476;6.086;2023-02-23T11:23:21;41.67;;;22.88;;
35444;SDS011;21562;49.476;6.086;2023-02-23T11:25:53;39.08;;;21.23;;
35444;SDS011;21562;49.476;6.086;2023-02-23T11:28:29;44.47;;;21.15;;
35444;SDS011;21562;49.476;6.086;2023-02-23T11:31:15;38.40;;;18.33;;
35444;SDS011;21562;49.476;6.086;2023-02-23T11:33:43;36.80;;;20.15;;
35444;SDS011;21562;49.476;6.086;2023-02-23T11:39:14;34.50;;;18.52;;
35444;SDS011;21562;49.476;6.086;2023-02-23T11:42:02;31.25;;;17.27;;
35444;SDS011;21562;49.476;6.086;2023-02-23T11:44:34;33.70;;;17.73;;
35444;SDS011;21562;49.476;6.086;2023-02-23T11:47:00;29.90;;;17.63;;
35444;SDS011;21562;49.476;6.086;2023-02-23T11:49:28;28.05;;;16.63;;
35444;SDS011;21562;49.476;6.086;2023-02-23T11:52:00;29.25;;;16.23;;
35444;SDS011;21562;49.476;6.086;2023-02-23T11:54:32;30.55;;;16.50;;
35444;SDS011;21562;49.476;6.086;2023-02-23T11:56:59;29.02;;;17.17;;
35444;SDS011;21562;49.476;6.086;2023-02-23T12:02:05;32.80;;;18.08;;
35444;SDS011;21562;49.476;6.086;2023-02-23T12:04:46;28.65;;;15.18;;
35444;SDS011;21562;49.476;6.086;2023-02-23T12:10:11;27.23;;;14.40;;
35444;SDS011;21562;49.476;6.086;2023-02-23T12:12:59;23.80;;;14.13;;
35444;SDS011;21562;49.476;6.086;2023-02-23T12:16:37;25.63;;;14.95;;
35444;SDS011;21562;49.476;6.086;2023-02-23T12:21:31;23.27;;;14.02;;
35444;SDS011;21562;49.476;6.086;2023-02-23T12:32:11;25.38;;;14.15;;
35444;SDS011;21562;49.476;6.086;2023-02-23T12:39:44;21.90;;;12.70;;
35444;SDS011;21562;49.476;6.086;2023-02-23T12:42:14;20.92;;;13.10;;
35444;SDS011;21562;49.476;6.086;2023-02-23T12:45:00;21.70;;;13.23;;
35444;SDS011;21562;49.476;6.086;2023-02-23T12:47:31;24.98;;;13.48;;
35444;SDS011;21562;49.476;6.086;2023-02-23T12:50:05;21.52;;;13.07;;
35444;SDS011;21562;49.476;6.086;2023-02-23T12:55:20;20.00;;;12.85;;
35444;SDS011;21562;49.476;6.086;2023-02-23T12:58:05;21.23;;;12.02;;
35444;SDS011;21562;49.476;6.086;2023-02-23T13:14:26;18.10;;;11.40;;
35444;SDS011;21562;49.476;6.086;2023-02-23T13:17:00;19.65;;;11.45;;
35444;SDS011;21562;49.476;6.086;2023-02-23T13:23:00;17.70;;;10.88;;
35444;SDS011;21562;49.476;6.086;2023-02-23T13:25:49;19.90;;;12.10;;
35444;SDS011;21562;49.476;6.086;2023-02-23T13:31:25;18.15;;;10.55;;
35444;SDS011;21562;49.476;6.086;2023-02-23T13:33:55;19.33;;;11.02;;
35444;SDS011;21562;49.476;6.086;2023-02-23T13:36:23;16.45;;;10.10;;
35444;SDS011;21562;49.476;6.086;2023-02-23T13:44:15;16.77;;;9.82;;
35444;SDS011;21562;49.476;6.086;2023-02-23T13:46:59;16.08;;;10.00;;
35444;SDS011;21562;49.476;6.086;2023-02-23T13:49:49;16.00;;;9.90;;
35444;SDS011;21562;49.476;6.086;2023-02-23T13:52:31;18.58;;;11.27;;
35444;SDS011;21562;49.476;6.086;2023-02-23T13:57:50;17.83;;;11.25;;
35444;SDS011;21562;49.476;6.086;2023-02-23T14:00:26;14.57;;;10.02;;
35444;SDS011;21562;49.476;6.086;2023-02-23T14:02:53;17.40;;;10.90;;
35444;SDS011;21562;49.476;6.086;2023-02-23T14:05:22;17.27;;;10.70;;
35444;SDS011;21562;49.476;6.086;2023-02-23T14:07:59;18.02;;;11.02;;
35444;SDS011;21562;49.476;6.086;2023-02-23T14:10:29;21.88;;;12.13;;
35444;SDS011;21562;49.476;6.086;2023-02-23T14:15:41;18.10;;;12.18;;
35444;SDS011;21562;49.476;6.086;2023-02-23T14:23:48;21.15;;;13.30;;
35444;SDS011;21562;49.476;6.086;2023-02-23T14:31:35;22.05;;;11.75;;
35444;SDS011;21562;49.476;6.086;2023-02-23T14:34:05;18.35;;;12.45;;
35444;SDS011;21562;49.476;6.086;2023-02-23T14:36:33;17.90;;;11.60;;
35444;SDS011;21562;49.476;6.086;2023-02-23T14:39:24;23.35;;;11.65;;
35444;SDS011;21562;49.476;6.086;2023-02-23T14:41:56;19.88;;;12.23;;
35444;SDS011;21562;49.476;6.086;2023-02-23T14:46:52;20.67;;;12.50;;
35444;SDS011;21562;49.476;6.086;2023-02-23T14:49:22;24.52;;;12.65;;
35444;SDS011;21562;49.476;6.086;2023-02-23T14:51:51;25.83;;;14.18;;
35444;SDS011;21562;49.476;6.086;2023-02-23T14:56:49;18.67;;;11.60;;
35444;SDS011;21562;49.476;6.086;2023-02-23T14:59:18;18.48;;;10.88;;
35444;SDS011;21562;49.476;6.086;2023-02-23T15:01:49;22.15;;;12.32;;
35444;SDS011;21562;49.476;6.086;2023-02-23T15:04:17;20.67;;;12.40;;
35444;SDS011;21562;49.476;6.086;2023-02-23T15:06:45;20.90;;;12.75;;
35444;SDS011;21562;49.476;6.086;2023-02-23T15:09:19;20.60;;;11.98;;
35444;SDS011;21562;49.476;6.086;2023-02-23T15:12:17;20.38;;;11.60;;
35444;SDS011;21562;49.476;6.086;2023-02-23T15:14:45;20.10;;;12.07;;
35444;SDS011;21562;49.476;6.086;2023-02-23T15:17:21;21.13;;;12.35;;
35444;SDS011;21562;49.476;6.086;2023-02-23T15:19:52;19.38;;;11.38;;
35444;SDS011;21562;49.476;6.086;2023-02-23T15:22:28;23.17;;;13.35;;
35444;SDS011;21562;49.476;6.086;2023-02-23T15:24:58;21.05;;;13.07;;
35444;SDS011;21562;49.476;6.086;2023-02-23T15:27:38;21.08;;;13.07;;
35444;SDS011;21562;49.476;6.086;2023-02-23T15:33:13;20.27;;;11.98;;
35444;SDS011;21562;49.476;6.086;2023-02-23T15:35:44;21.17;;;12.73;;
35444;SDS011;21562;49.476;6.086;2023-02-23T15:38:19;29.30;;;12.52;;
35444;SDS011;21562;49.476;6.086;2023-02-23T15:40:58;21.70;;;12.80;;
35444;SDS011;21562;49.476;6.086;2023-02-23T15:43:26;30.52;;;12.70;;
35444;SDS011;21562;49.476;6.086;2023-02-23T15:45:54;21.98;;;12.73;;
35444;SDS011;21562;49.476;6.086;2023-02-23T15:48:23;22.08;;;12.60;;
35444;SDS011;21562;49.476;6.086;2023-02-23T15:50:53;22.77;;;12.80;;
35444;SDS011;21562;49.476;6.086;2023-02-23T15:53:28;22.52;;;12.32;;
35444;SDS011;21562;49.476;6.086;2023-02-23T15:56:41;22.67;;;12.20;;
35444;SDS011;21562;49.476;6.086;2023-02-23T15:58:53;27.75;;;12.57;;
35444;SDS011;21562;49.476;6.086;2023-02-23T16:01:22;23.58;;;13.18;;
35444;SDS011;21562;49.476;6.086;2023-02-23T16:04:05;19.67;;;11.73;;
35444;SDS011;21562;49.476;6.086;2023-02-23T16:06:34;25.10;;;13.45;;
35444;SDS011;21562;49.476;6.086;2023-02-23T16:11:48;27.80;;;14.55;;
35444;SDS011;21562;49.476;6.086;2023-02-23T16:14:18;25.63;;;13.02;;
35444;SDS011;21562;49.476;6.086;2023-02-23T16:16:48;19.23;;;11.98;;
35444;SDS011;21562;49.476;6.086;2023-02-23T16:19:17;23.02;;;13.15;;
35444;SDS011;21562;49.476;6.086;2023-02-23T16:21:54;22.08;;;12.68;;
35444;SDS011;21562;49.476;6.086;2023-02-23T16:24:22;23.30;;;12.18;;
35444;SDS011;21562;49.476;6.086;2023-02-23T16:26:55;25.02;;;12.75;;
35444;SDS011;21562;49.476;6.086;2023-02-23T16:29:29;23.10;;;13.10;;
35444;SDS011;21562;49.476;6.086;2023-02-23T16:32:00;27.13;;;13.32;;
35444;SDS011;21562;49.476;6.086;2023-02-23T16:37:19;22.20;;;12.77;;
35444;SDS011;21562;49.476;6.086;2023-02-23T16:39:47;23.63;;;12.50;;
35444;SDS011;21562;49.476;6.086;2023-02-23T16:42:20;23.58;;;13.32;;
35444;SDS011;21562;49.476;6.086;2023-02-23T16:44:50;21.83;;;12.25;;
35444;SDS011;21562;49.476;6.086;2023-02-23T16:49:47;22.23;;;13.48;;
35444;SDS011;21562;49.476;6.086;2023-02-23T16:52:16;25.38;;;14.32;;
35444;SDS011;21562;49.476;6.086;2023-02-23T16:54:46;21.42;;;13.20;;
35444;SDS011;21562;49.476;6.086;2023-02-23T16:57:25;21.63;;;13.30;;
35444;SDS011;21562;49.476;6.086;2023-02-23T16:59:53;23.38;;;12.98;;
35444;SDS011;21562;49.476;6.086;2023-02-23T17:02:21;23.83;;;12.93;;
35444;SDS011;21562;49.476;6.086;2023-02-23T17:04:48;26.50;;;14.15;;
35444;SDS011;21562;49.476;6.086;2023-02-23T17:07:15;28.63;;;14.32;;
35444;SDS011;21562;49.476;6.086;2023-02-23T17:09:43;27.50;;;13.48;;
35444;SDS011;21562;49.476;6.086;2023-02-23T17:12:15;26.60;;;15.00;;
35444;SDS011;21562;49.476;6.086;2023-02-23T17:14:45;22.05;;;11.75;;
35444;SDS011;21562;49.476;6.086;2023-02-23T17:17:16;19.73;;;10.45;;